Enter the Airport ICAO Code

Search by Airport or City

Current Weather

LEMG | Málaga Airport

Málaga, Andalusia, Spain

Last Update 26 Minutes Ago

Mostly Cloudy Sky

Temperature of 15 ºC

Moderate Winds from SouthEast

Temperature

15 ºC

Dew Point Temperature

11 ºC

Relative Humidity

77.09 %

Wind Direction

SouthEast (120º, Without Significant Variations)

Wind Velocity

19 km/h (10 kt)

Gusts

None

Visibility

Greater than 10 Kilometers

Sea Level Pressure

1025 hPa (Hectopascals)

Layers of Clouds

5% to 30% of Sky Covered from 610 mts (2000 ft) Above Ground Level.

60% to 90% of Sky Covered from 1006 mts (3300 ft) Above Ground Level.

METAR LEMG 270230Z 12010KT 9999 FEW020 BKN033 15/11 Q1025 NOSIG

Weather Forecast

LEMG | Málaga Airport

Málaga, Andalusia, Spain

Forecast valid for the next 21 Hours

In the next 2 hours it is expected the begining of:

Light Winds from Variable Directions

In 2 hours it is expected the begining of 4 hours with intermittent periods of:

Light to Moderate Winds from West

In 8 to 11 hours it is expected the begining of:

Light to Moderate Winds from SouthEast

In 14 to 17 hours it is expected the begining of:

Light Winds from Variable Directions

Maximum Temperature

17 ºC in 10 Hours

Minimum Temperature

11 ºC in 3 Hours

TAF LEMG 270137Z 2701/2724 12008KT 9999 FEW020 BKN030 TX17/2713Z TN11/2706Z BECMG 2702/2705 VRB02KT PROB30 TEMPO 2705/2709 29006KT BECMG 2711/2714 14008KT BECMG 2717/2720 VRB02KT